Gerd Maersk — OYGM2 — position and weather

sailwx.info

Track history (hours):
 
Tides and Currents Weather Stations Pressure Air Temp Water Temp Dewpoint Dewpoint Depression Visibility Wind Speed Wind Dir Waves Ship Positions

Gerd Maersk

Last reported at 2017-Oct-08 01:11 UTC. Time now 2017-Oct-19 17:58 UTC.
Position N 38°09' W 125°24'.
Warning: this ship's position is 11 days out of date.

Length 367 m; draft 13.5 m.

Type: Ship (hazmat cat A). MMSI: 220415000.

Date/timePositionNaut miles runAvg speedWind from/ knotsBaromVisibWave heightAir tempDewpointWater temp
2017-Oct-08 01:11N 38°09' W 125°24'615.6
2017-Oct-08 00:49N 38°09' W 125°17'515.8
2017-Oct-08 00:30N 38°09' W 125°11'815.7
2017-Oct-08 00:00N 38°09' W 125°01'816.1
2017-Oct-07 23:30N 38°10' W 124°50'816.0
2017-Oct-07 23:00N 38°10' W 124°40'815.3
2017-Oct-07 22:30N 38°10' W 124°30'715.0
2017-Oct-07 22:00N 38°10' W 124°21'815.1
2017-Oct-07 21:30N 38°10' W 124°11'714.9
2017-Oct-07 21:00N 38°10' W 124°02'714.8
2017-Oct-07 20:30N 38°10' W 123°53'815.0
2017-Oct-07 20:00N 38°10' W 123°43'815.3
2017-Oct-07 19:30N 38°10' W 123°33'714.9
2017-Oct-07 19:00N 38°11' W 123°24'611.1
2017-Oct-07 18:30N 38°07' W 123°19'3 6.1
2017-Oct-07 18:00N 38°05' W 123°16'3 5.3
2017-Oct-07 17:30N 38°03' W 123°14'4 7.2
2017-Oct-07 17:00N 38°00' W 123°11'5 9.6
2017-Oct-07 16:30N 37°57' W 123°06'510.0
2017-Oct-07 16:00N 37°55' W 123°00'510.3
2017-Oct-07 15:30N 37°52' W 122°55'510.0
2017-Oct-07 15:00N 37°50' W 122°49'510.2
2017-Oct-07 14:30N 37°47' W 122°44'5 9.5
2017-Oct-07 14:00N 37°46' W 122°38'713.8
2017-Oct-07 13:30N 37°49' W 122°30'510.3
2017-Oct-07 13:01N 37°49' W 122°24'4 7.6
2017-Oct-07 12:30N 37°48' W 122°19'0 0.6
2017-Oct-07 11:59N 37°48' W 122°19'0 0.0
2017-Oct-07 11:26N 37°48' W 122°19'0 0.0
2017-Oct-07 10:59N 37°48' W 122°19'0 0.0
2017-Oct-07 10:29N 37°48' W 122°19'0 0.0
2017-Oct-07 09:59N 37°48' W 122°19'0 0.0
2017-Oct-07 09:29N 37°48' W 122°19'0 0.0
2017-Oct-07 08:59N 37°48' W 122°19'0 0.0
2017-Oct-07 08:29N 37°48' W 122°19'0 0.0
2017-Oct-07 07:59N 37°48' W 122°19'0 0.0
2017-Oct-07 07:29N 37°48' W 122°19'0 0.0
2017-Oct-07 06:59N 37°48' W 122°19'0 0.0
2017-Oct-07 06:29N 37°48' W 122°19'0 0.0
2017-Oct-07 05:59N 37°48' W 122°19'0 0.0
2017-Oct-07 05:29N 37°48' W 122°19'0 0.0
2017-Oct-07 04:59N 37°48' W 122°19'0 0.0
2017-Oct-07 04:29N 37°48' W 122°19'0 0.0
2017-Oct-07 03:59N 37°48' W 122°19'0 0.0
2017-Oct-07 03:29N 37°48' W 122°19'0 0.0
2017-Oct-07 02:59N 37°48' W 122°19'0 0.0
2017-Oct-07 02:29N 37°48' W 122°19'0 0.0
2017-Oct-07 01:59N 37°48' W 122°19'0 0.0
2017-Oct-07 01:29N 37°48' W 122°19'0 0.0
2017-Oct-07 00:59N 37°48' W 122°19'0 0.0
2017-Oct-07 00:29N 37°48' W 122°19'0 0.0
2017-Oct-06 23:59N 37°48' W 122°19'0 0.0
2017-Oct-06 23:29N 37°48' W 122°19'0 0.0
2017-Oct-06 22:59N 37°48' W 122°19'0 0.0
2017-Oct-06 22:29N 37°48' W 122°19'0 0.0
2017-Oct-06 21:59N 37°48' W 122°19'0 0.0
2017-Oct-06 21:29N 37°48' W 122°19'0 0.0
2017-Oct-06 20:59N 37°48' W 122°19'0 0.0
2017-Oct-06 20:29N 37°48' W 122°19'0 0.0
2017-Oct-06 19:59N 37°48' W 122°19'0 0.0
2017-Oct-06 19:29N 37°48' W 122°19'0 0.0
2017-Oct-06 18:59N 37°48' W 122°19'0 0.0
2017-Oct-06 18:29N 37°48' W 122°19'0 0.0
2017-Oct-06 17:59N 37°48' W 122°19'0 0.0
2017-Oct-06 17:29N 37°48' W 122°19'0 0.0
2017-Oct-06 16:59N 37°48' W 122°19'0 0.0
2017-Oct-06 16:29N 37°48' W 122°19'0 0.0
2017-Oct-06 15:59N 37°48' W 122°19'0 0.0
2017-Oct-06 15:26N 37°48' W 122°19'0 0.0
2017-Oct-06 14:59N 37°48' W 122°19'0 0.0
2017-Oct-06 14:29N 37°48' W 122°19'0 0.0
2017-Oct-06 13:59N 37°48' W 122°19'0 0.0
2017-Oct-06 13:29N 37°48' W 122°19'0 0.0
2017-Oct-06 13:00N 37°48' W 122°19'0 0.0
2017-Oct-06 12:29N 37°48' W 122°19'0 0.0
2017-Oct-06 11:59N 37°48' W 122°19'0 0.0
2017-Oct-06 11:29N 37°48' W 122°19'0 0.0
2017-Oct-06 10:59N 37°48' W 122°19'0 0.0
2017-Oct-06 10:29N 37°48' W 122°19'0 0.0
2017-Oct-06 09:59N 37°48' W 122°19'0 0.0
2017-Oct-06 09:29N 37°48' W 122°19'0 0.1
2017-Oct-06 08:59N 37°48' W 122°19'0 0.1
2017-Oct-06 08:29N 37°48' W 122°19'0 0.0
2017-Oct-06 07:59N 37°48' W 122°19'0 0.0
2017-Oct-06 07:29N 37°48' W 122°19'0 0.0
2017-Oct-06 06:59N 37°48' W 122°19'0 0.0
2017-Oct-06 06:29N 37°48' W 122°19'0 0.0
2017-Oct-06 05:59N 37°48' W 122°19'0 0.0
2017-Oct-06 05:29N 37°48' W 122°19'0 0.0
2017-Oct-06 04:59N 37°48' W 122°19'0 0.0
2017-Oct-06 04:29N 37°48' W 122°19'0 0.0
2017-Oct-06 03:59N 37°48' W 122°19'0 0.0
2017-Oct-06 03:29N 37°48' W 122°19'0 0.0
2017-Oct-06 02:59N 37°48' W 122°19'0 0.0
2017-Oct-06 02:30N 37°48' W 122°19'0 0.0
2017-Oct-06 01:59N 37°48' W 122°19'0 0.0
2017-Oct-06 01:29N 37°48' W 122°19'0 0.0
2017-Oct-06 00:59N 37°48' W 122°19'0 0.0
2017-Oct-06 00:29N 37°48' W 122°19'0 0.0
2017-Oct-05 23:59N 37°48' W 122°19'0 0.0
2017-Oct-05 23:29N 37°48' W 122°19'0 0.0
2017-Oct-05 22:59N 37°48' W 122°19'0 0.0
2017-Oct-05 22:29N 37°48' W 122°19'0 0.0
2017-Oct-05 21:56N 37°48' W 122°19'0 0.0
2017-Oct-05 21:29N 37°48' W 122°19'0 0.0
2017-Oct-05 20:59N 37°48' W 122°19'0 0.0
2017-Oct-05 20:29N 37°48' W 122°19'0 0.0
2017-Oct-05 19:59N 37°48' W 122°19'0 0.0
2017-Oct-05 19:29N 37°48' W 122°19'0 0.0
2017-Oct-05 18:59N 37°48' W 122°19'0 0.0
2017-Oct-05 18:29N 37°48' W 122°19'0 0.0
2017-Oct-05 17:59N 37°48' W 122°19'0 0.0
2017-Oct-05 17:29N 37°48' W 122°19'0 0.0
2017-Oct-05 16:59N 37°48' W 122°19'0 0.0
2017-Oct-05 15:29N 37°48' W 122°19'0 0.0
2017-Oct-05 14:59N 37°48' W 122°19'0 0.1
2017-Oct-05 14:30N 37°48' W 122°19'1 2.1
2017-Oct-05 14:00N 37°48' W 122°18'0 0.5
2017-Oct-05 13:30N 37°48' W 122°18'2 3.4
2017-Oct-05 13:00N 37°48' W 122°20'4 7.8
2017-Oct-05 12:30N 37°49' W 122°25'4 8.5
2017-Oct-05 12:00N 37°49' W 122°30'5 9.1
2017-Oct-05 11:30N 37°47' W 122°35'5 9.2
2017-Oct-05 11:00N 37°44' W 122°40'4 8.1
2017-Oct-05 10:30N 37°40' W 122°40'5 9.8
2017-Oct-05 10:00N 37°35' W 122°40'5 9.9
2017-Oct-05 09:31N 37°30' W 122°40'5 9.9
2017-Oct-05 09:00N 37°25' W 122°40'510.0
2017-Oct-05 08:30N 37°20' W 122°40'510.9
2017-Oct-05 08:00N 37°15' W 122°39'612.8
2017-Oct-05 07:30N 37°08' W 122°38'612.9
2017-Oct-05 07:00N 37°02' W 122°35'713.0
2017-Oct-05 06:30N 36°56' W 122°32'612.8
2017-Oct-05 06:00N 36°50' W 122°29'612.7
2017-Oct-05 05:30N 36°44' W 122°26'612.4
2017-Oct-05 05:00N 36°39' W 122°23'612.4
2017-Oct-05 04:30N 36°33' W 122°20'612.4
2017-Oct-05 04:00N 36°27' W 122°17'612.2
2017-Oct-05 03:30N 36°22' W 122°14'712.6
2017-Oct-05 02:59N 36°16' W 122°10'712.9
2017-Oct-05 02:25N 36°09' W 122°06'512.8
2017-Oct-05 02:00N 36°05' W 122°03'612.6
2017-Oct-05 01:30N 35°59' W 121°59'612.4
2017-Oct-05 01:00N 35°54' W 121°55'1312.4
2017-Oct-04 23:57N 35°42' W 121°47'612.7
2017-Oct-04 23:30N 35°38' W 121°44'1412.3
2017-Oct-04 22:23N 35°26' W 121°35'512.4
2017-Oct-04 22:00N 35°22' W 121°33'612.5
2017-Oct-04 21:30N 35°16' W 121°28'612.8
2017-Oct-04 21:00N 35°11' W 121°25'612.4
2017-Oct-04 20:30N 35°05' W 121°21'612.2
2017-Oct-04 20:00N 35°00' W 121°17'5 9.6
2017-Oct-04 19:30N 34°56' W 121°14'5 9.6
2017-Oct-04 19:00N 34°52' W 121°11'510.1
2017-Oct-04 18:30N 34°47' W 121°08'510.1
2017-Oct-04 18:00N 34°43' W 121°05'5 9.9
2017-Oct-04 17:30N 34°39' W 121°02'510.1
2017-Oct-04 17:00N 34°34' W 120°59'610.6
2017-Oct-04 16:29N 34°29' W 120°56'510.3
2017-Oct-04 16:00N 34°26' W 120°51'510.5
2017-Oct-04 15:30N 34°25' W 120°45'510.8
2017-Oct-04 15:00N 34°23' W 120°39'610.7
2017-Oct-04 14:29N 34°22' W 120°32'511.2
2017-Oct-04 14:00N 34°20' W 120°26'611.1
2017-Oct-04 13:30N 34°19' W 120°20'510.9
2017-Oct-04 13:00N 34°17' W 120°13'610.7
2017-Oct-04 12:29N 34°16' W 120°07'510.8
2017-Oct-04 11:58N 34°15' W 120°00'610.8
2017-Oct-04 11:27N 34°13' W 119°54'510.9
2017-Oct-04 11:00N 34°12' W 119°48'611.0
2017-Oct-04 10:29N 34°10' W 119°41'510.7
2017-Oct-04 09:58N 34°09' W 119°35'510.9
2017-Oct-04 09:29N 34°07' W 119°29'511.1
2017-Oct-04 09:00N 34°06' W 119°23'611.0
2017-Oct-04 08:29N 34°04' W 119°16'511.1
2017-Oct-04 08:00N 34°02' W 119°10'611.1
2017-Oct-04 07:25N 33°59' W 119°03'511.1
2017-Oct-04 07:00N 33°56' W 118°58'511.1
2017-Oct-04 06:30N 33°54' W 118°53'611.2
2017-Oct-04 06:00N 33°51' W 118°47'511.0
2017-Oct-04 05:30N 33°48' W 118°41'611.0
2017-Oct-04 04:59N 33°45' W 118°35'611.5
2017-Oct-04 04:27N 33°42' W 118°29'611.7
2017-Oct-04 03:57N 33°40' W 118°23'510.8
2017-Oct-04 03:30N 33°39' W 118°17'4 8.1
2017-Oct-04 03:00N 33°42' W 118°15'2 3.3
2017-Oct-04 02:30N 33°44' W 118°15'0 0.7
2017-Oct-04 01:55N 33°44' W 118°15'0 0.0
2017-Oct-04 01:19N 33°44' W 118°15'0 0.0
2017-Oct-04 00:25N 33°44' W 118°15'0 0.0
2017-Oct-03 23:55N 33°44' W 118°15'0 0.0
2017-Oct-03 23:25N 33°44' W 118°15'0 0.0
2017-Oct-03 22:55N 33°44' W 118°15'0 0.0
2017-Oct-03 22:25N 33°44' W 118°15'0 0.0
2017-Oct-03 21:49N 33°44' W 118°15'0 0.0
2017-Oct-03 21:19N 33°44' W 118°15'0 0.0
2017-Oct-03 20:49N 33°44' W 118°15'0 0.0
2017-Oct-03 20:25N 33°44' W 118°15'0 0.0
2017-Oct-03 19:55N 33°44' W 118°15'0 0.0
2017-Oct-03 19:25N 33°44' W 118°15'0 0.0
2017-Oct-03 18:49N 33°44' W 118°15'0 0.0
2017-Oct-03 18:19N 33°44' W 118°15'0 0.0
2017-Oct-03 17:55N 33°44' W 118°15'0 0.0
2017-Oct-03 17:19N 33°44' W 118°15'0 0.0
2017-Oct-03 16:55N 33°44' W 118°15'0 0.0
2017-Oct-03 16:25N 33°44' W 118°15'0 0.0
2017-Oct-03 15:55N 33°44' W 118°15'0 0.0
2017-Oct-03 15:25N 33°44' W 118°15'0 0.0
2017-Oct-03 13:31N 33°44' W 118°15'0 0.0
2017-Oct-03 12:43N 33°44' W 118°15'0 0.0
2017-Oct-03 12:13N 33°44' W 118°15'0 0.0
2017-Oct-03 11:55N 33°44' W 118°15'0 0.0
2017-Oct-03 11:22N 33°44' W 118°15'0 0.0
2017-Oct-03 10:55N 33°44' W 118°15'0 0.0
2017-Oct-03 09:55N 33°44' W 118°15'0 0.0
2017-Oct-03 09:25N 33°44' W 118°15'0 0.0
2017-Oct-03 08:58N 33°44' W 118°15'0 0.0
2017-Oct-03 08:22N 33°44' W 118°15'0 0.0
2017-Oct-03 07:55N 33°44' W 118°15'0 0.0
2017-Oct-03 07:10N 33°44' W 118°15'0 0.0
2017-Oct-03 06:55N 33°44' W 118°15'0 0.0
2017-Oct-03 06:22N 33°44' W 118°15'0 0.0
2017-Oct-03 05:55N 33°44' W 118°15'0 0.0
2017-Oct-03 05:22N 33°44' W 118°15'0 0.0
2017-Oct-03 04:49N 33°44' W 118°15'0 0.0
2017-Oct-03 04:25N 33°44' W 118°15'0 0.0
2017-Oct-03 03:55N 33°44' W 118°15'0 0.0
2017-Oct-03 03:13N 33°44' W 118°15'0 0.0
2017-Oct-03 02:49N 33°44' W 118°15'0 0.0
2017-Oct-03 02:25N 33°44' W 118°15'0 0.0
2017-Oct-03 01:49N 33°44' W 118°15'0 0.0
2017-Oct-03 01:25N 33°44' W 118°15'0 0.0
2017-Oct-03 00:55N 33°44' W 118°15'0 0.0
2017-Oct-03 00:25N 33°44' W 118°15'0 0.0
2017-Oct-02 23:55N 33°44' W 118°15'0 0.0
2017-Oct-02 23:25N 33°44' W 118°15'0 0.0
2017-Oct-02 22:55N 33°44' W 118°15'0 0.0
2017-Oct-02 22:25N 33°44' W 118°15'0 0.0
2017-Oct-02 21:55N 33°44' W 118°15'0 0.0
2017-Oct-02 21:25N 33°44' W 118°15'0 0.0
2017-Oct-02 20:55N 33°44' W 118°15'0 0.0
2017-Oct-02 20:13N 33°44' W 118°15'0 0.0
2017-Oct-02 19:55N 33°44' W 118°15'0 0.0
2017-Oct-02 19:25N 33°44' W 118°15'0 0.0
2017-Oct-02 18:55N 33°44' W 118°15'0 0.0
2017-Oct-02 18:13N 33°44' W 118°15'0 0.0
2017-Oct-02 17:55N 33°44' W 118°15'0 0.0
2017-Oct-02 17:25N 33°44' W 118°15'0 0.0
2017-Oct-02 16:55N 33°44' W 118°15'0 0.0
2017-Oct-02 16:25N 33°44' W 118°15'0 0.0
2017-Oct-02 15:55N 33°44' W 118°15'0 0.0
2017-Oct-02 15:25N 33°44' W 118°15'0 0.0
2017-Oct-02 14:49N 33°44' W 118°15'0 0.0
2017-Oct-02 14:25N 33°44' W 118°15'0 0.0
2017-Oct-02 13:40N 33°44' W 118°15'0 0.0
2017-Oct-02 13:13N 33°44' W 118°15'0 0.0
2017-Oct-02 12:46N 33°44' W 118°15'0 0.0
2017-Oct-02 12:25N 33°44' W 118°15'0 0.0
2017-Oct-02 11:55N 33°44' W 118°15'0 0.0
2017-Oct-02 11:28N 33°44' W 118°15'0 0.0
2017-Oct-02 10:55N 33°44' W 118°15'0 0.0
2017-Oct-02 09:31N 33°44' W 118°15'0 0.0
2017-Oct-02 09:19N 33°44' W 118°15'0 0.0
2017-Oct-02 08:55N 33°44' W 118°15'0 0.0
2017-Oct-02 08:28N 33°44' W 118°15'0 0.0
2017-Oct-02 07:55N 33°44' W 118°15'0 0.0
2017-Oct-02 07:22N 33°44' W 118°15'0 0.0
2017-Oct-02 06:55N 33°44' W 118°15'0 0.0
2017-Oct-02 06:25N 33°44' W 118°15'0 0.0
2017-Oct-02 05:40N 33°44' W 118°15'0 0.0
2017-Oct-02 05:28N 33°44' W 118°15'0 0.0
2017-Oct-02 04:58N 33°44' W 118°15'0 0.0
2017-Oct-02 04:28N 33°44' W 118°15'0 0.0
2017-Oct-02 03:52N 33°44' W 118°15'0 0.0
2017-Oct-02 03:28N 33°44' W 118°15'0 0.0
2017-Oct-02 02:40N 33°44' W 118°15'0 0.0
2017-Oct-02 02:28N 33°44' W 118°15'0 0.0
2017-Oct-02 01:52N 33°44' W 118°15'0 0.0
2017-Oct-02 01:22N 33°44' W 118°15'0 0.0
2017-Oct-02 00:58N 33°44' W 118°15'0 0.0
2017-Oct-02 00:22N 33°44' W 118°15'0 0.0
2017-Oct-01 23:58N 33°44' W 118°15'0 0.0
2017-Oct-01 23:28N 33°44' W 118°15'0 0.0
2017-Oct-01 22:58N 33°44' W 118°15'0 0.0
2017-Oct-01 22:10N 33°44' W 118°15'0 0.0
2017-Oct-01 21:58N 33°44' W 118°15'0 0.0
2017-Oct-01 21:28N 33°44' W 118°15'0 0.0
2017-Oct-01 20:58N 33°44' W 118°15'0 0.0
2017-Oct-01 20:28N 33°44' W 118°15'0 0.0
2017-Oct-01 19:58N 33°44' W 118°15'0 0.0
2017-Oct-01 19:16N 33°44' W 118°15'0 0.0
2017-Oct-01 18:55N 33°44' W 118°15'0 0.0
2017-Oct-01 18:22N 33°44' W 118°15'0 0.0
2017-Oct-01 17:58N 33°44' W 118°15'0 0.0
2017-Oct-01 17:28N 33°44' W 118°15'0 0.0
2017-Oct-01 16:52N 33°44' W 118°15'0 0.0
2017-Oct-01 16:22N 33°44' W 118°15'0 0.0
2017-Oct-01 15:58N 33°44' W 118°15'0 0.0
2017-Oct-01 15:28N 33°44' W 118°15'0 0.0
2017-Oct-01 11:43N 33°44' W 118°15'0 0.0
2017-Oct-01 11:25N 33°44' W 118°15'0 0.0
2017-Oct-01 10:55N 33°44' W 118°15'0 0.0
2017-Oct-01 10:25N 33°44' W 118°15'0 0.0
2017-Oct-01 09:46N 33°44' W 118°15'0 0.0
2017-Oct-01 09:13N 33°44' W 118°15'0 0.0
2017-Oct-01 08:49N 33°44' W 118°15'0 0.0
2017-Oct-01 08:25N 33°44' W 118°15'0 0.0
2017-Oct-01 07:49N 33°44' W 118°15'0 0.0
2017-Oct-01 07:01N 33°44' W 118°15'0 0.1
2017-Oct-01 06:49N 33°44' W 118°15'0 0.0
2017-Oct-01 06:19N 33°44' W 118°15'0 0.0
2017-Oct-01 05:55N 33°44' W 118°15'0 0.0
2017-Oct-01 05:19N 33°44' W 118°15'0 0.0
2017-Oct-01 04:55N 33°44' W 118°15'0 0.0
2017-Oct-01 04:19N 33°44' W 118°15'0 0.0
2017-Oct-01 03:58N 33°44' W 118°15'0 0.0
2017-Oct-01 03:28N 33°44' W 118°15'0 0.0
2017-Oct-01 02:58N 33°44' W 118°15'107 4.3
2017-Sep-30 02:00N 34°16' W 120°18'917.6
2017-Sep-30 01:30N 34°19' W 120°28'917.6
2017-Sep-30 01:00N 34°21' W 120°38'917.5
2017-Sep-30 00:30N 34°23' W 120°49'1017.4
2017-Sep-29 23:56N 34°24' W 121°00'816.6
2017-Sep-29 23:28N 34°24' W 121°10'916.6
2017-Sep-29 22:54N 34°24' W 121°21'717.9
2017-Sep-29 22:29N 34°24' W 121°30'816.8
2017-Sep-29 22:00N 34°24' W 121°40'1117.3
2017-Sep-29 21:22N 34°24' W 121°53'617.4
2017-Sep-29 21:00N 34°23' W 122°01'917.3
2017-Sep-29 20:29N 34°23' W 122°12'817.2
2017-Sep-29 20:00N 34°23' W 122°22'816.5
2017-Sep-29 19:30N 34°23' W 122°32'1416.5
2017-Sep-29 18:40N 34°24' W 122°49'514.8
2017-Sep-29 18:19N 34°24' W 122°55'3 8.6
2017-Sep-29 17:58N 34°24' W 122°58'714.3
2017-Sep-29 17:29N 34°24' W 123°07'1218.3
2017-Sep-29 16:50N 34°24' W 123°21'5818.2
2017-Sep-29 13:40N 34°24' W 124°31'317.7
2017-Sep-29 13:30N 34°24' W 124°35'  
Track history (hours):
 
Tides and Currents Weather Stations Pressure Air Temp Water Temp Dewpoint Dewpoint Depression Visibility Wind Speed Wind Dir Waves Ship Positions

Gerd Maersk

Last reported at 2017-Oct-08 01:11 UTC. Time now 2017-Oct-19 17:58 UTC.
Position N 38°09' W 125°24'.
Warning: this ship's position is 11 days out of date.

Length 367 m; draft 13.5 m.

Type: Ship (hazmat cat A). MMSI: 220415000.

Date/timePositionNaut miles runAvg speedWind from/ knotsBaromVisibWave heightAir tempDewpointWater temp
2017-Oct-08 01:11N 38°09' W 125°24'615.6
2017-Oct-08 00:49N 38°09' W 125°17'515.8
2017-Oct-08 00:30N 38°09' W 125°11'815.7
2017-Oct-08 00:00N 38°09' W 125°01'816.1
2017-Oct-07 23:30N 38°10' W 124°50'816.0
2017-Oct-07 23:00N 38°10' W 124°40'815.3
2017-Oct-07 22:30N 38°10' W 124°30'715.0
2017-Oct-07 22:00N 38°10' W 124°21'815.1
2017-Oct-07 21:30N 38°10' W 124°11'714.9
2017-Oct-07 21:00N 38°10' W 124°02'714.8
2017-Oct-07 20:30N 38°10' W 123°53'815.0
2017-Oct-07 20:00N 38°10' W 123°43'815.3
2017-Oct-07 19:30N 38°10' W 123°33'714.9
2017-Oct-07 19:00N 38°11' W 123°24'611.1
2017-Oct-07 18:30N 38°07' W 123°19'3 6.1
2017-Oct-07 18:00N 38°05' W 123°16'3 5.3
2017-Oct-07 17:30N 38°03' W 123°14'4 7.2
2017-Oct-07 17:00N 38°00' W 123°11'5 9.6
2017-Oct-07 16:30N 37°57' W 123°06'510.0
2017-Oct-07 16:00N 37°55' W 123°00'510.3
2017-Oct-07 15:30N 37°52' W 122°55'510.0
2017-Oct-07 15:00N 37°50' W 122°49'510.2
2017-Oct-07 14:30N 37°47' W 122°44'5 9.5
2017-Oct-07 14:00N 37°46' W 122°38'713.8
2017-Oct-07 13:30N 37°49' W 122°30'510.3
2017-Oct-07 13:01N 37°49' W 122°24'4 7.6
2017-Oct-07 12:30N 37°48' W 122°19'0 0.6
2017-Oct-07 11:59N 37°48' W 122°19'0 0.0
2017-Oct-07 11:26N 37°48' W 122°19'0 0.0
2017-Oct-07 10:59N 37°48' W 122°19'0 0.0
2017-Oct-07 10:29N 37°48' W 122°19'0 0.0
2017-Oct-07 09:59N 37°48' W 122°19'0 0.0
2017-Oct-07 09:29N 37°48' W 122°19'0 0.0
2017-Oct-07 08:59N 37°48' W 122°19'0 0.0
2017-Oct-07 08:29N 37°48' W 122°19'0 0.0
2017-Oct-07 07:59N 37°48' W 122°19'0 0.0
2017-Oct-07 07:29N 37°48' W 122°19'0 0.0
2017-Oct-07 06:59N 37°48' W 122°19'0 0.0
2017-Oct-07 06:29N 37°48' W 122°19'0 0.0
2017-Oct-07 05:59N 37°48' W 122°19'0 0.0
2017-Oct-07 05:29N 37°48' W 122°19'0 0.0
2017-Oct-07 04:59N 37°48' W 122°19'0 0.0
2017-Oct-07 04:29N 37°48' W 122°19'0 0.0
2017-Oct-07 03:59N 37°48' W 122°19'0 0.0
2017-Oct-07 03:29N 37°48' W 122°19'0 0.0
2017-Oct-07 02:59N 37°48' W 122°19'0 0.0
2017-Oct-07 02:29N 37°48' W 122°19'0 0.0
2017-Oct-07 01:59N 37°48' W 122°19'0 0.0
2017-Oct-07 01:29N 37°48' W 122°19'0 0.0
2017-Oct-07 00:59N 37°48' W 122°19'0 0.0
2017-Oct-07 00:29N 37°48' W 122°19'0 0.0
2017-Oct-06 23:59N 37°48' W 122°19'0 0.0
2017-Oct-06 23:29N 37°48' W 122°19'0 0.0
2017-Oct-06 22:59N 37°48' W 122°19'0 0.0
2017-Oct-06 22:29N 37°48' W 122°19'0 0.0
2017-Oct-06 21:59N 37°48' W 122°19'0 0.0
2017-Oct-06 21:29N 37°48' W 122°19'0 0.0
2017-Oct-06 20:59N 37°48' W 122°19'0 0.0
2017-Oct-06 20:29N 37°48' W 122°19'0 0.0
2017-Oct-06 19:59N 37°48' W 122°19'0 0.0
2017-Oct-06 19:29N 37°48' W 122°19'0 0.0
2017-Oct-06 18:59N 37°48' W 122°19'0 0.0
2017-Oct-06 18:29N 37°48' W 122°19'0 0.0
2017-Oct-06 17:59N 37°48' W 122°19'0 0.0
2017-Oct-06 17:29N 37°48' W 122°19'0 0.0
2017-Oct-06 16:59N 37°48' W 122°19'0 0.0
2017-Oct-06 16:29N 37°48' W 122°19'0 0.0
2017-Oct-06 15:59N 37°48' W 122°19'0 0.0
2017-Oct-06 15:26N 37°48' W 122°19'0 0.0
2017-Oct-06 14:59N 37°48' W 122°19'0 0.0
2017-Oct-06 14:29N 37°48' W 122°19'0 0.0
2017-Oct-06 13:59N 37°48' W 122°19'0 0.0
2017-Oct-06 13:29N 37°48' W 122°19'0 0.0
2017-Oct-06 13:00N 37°48' W 122°19'0 0.0
2017-Oct-06 12:29N 37°48' W 122°19'0 0.0
2017-Oct-06 11:59N 37°48' W 122°19'0 0.0
2017-Oct-06 11:29N 37°48' W 122°19'0 0.0
2017-Oct-06 10:59N 37°48' W 122°19'0 0.0
2017-Oct-06 10:29N 37°48' W 122°19'0 0.0
2017-Oct-06 09:59N 37°48' W 122°19'0 0.0
2017-Oct-06 09:29N 37°48' W 122°19'0 0.1
2017-Oct-06 08:59N 37°48' W 122°19'0 0.1
2017-Oct-06 08:29N 37°48' W 122°19'0 0.0
2017-Oct-06 07:59N 37°48' W 122°19'0 0.0
2017-Oct-06 07:29N 37°48' W 122°19'0 0.0
2017-Oct-06 06:59N 37°48' W 122°19'0 0.0
2017-Oct-06 06:29N 37°48' W 122°19'0 0.0
2017-Oct-06 05:59N 37°48' W 122°19'0 0.0
2017-Oct-06 05:29N 37°48' W 122°19'0 0.0
2017-Oct-06 04:59N 37°48' W 122°19'0 0.0
2017-Oct-06 04:29N 37°48' W 122°19'0 0.0
2017-Oct-06 03:59N 37°48' W 122°19'0 0.0
2017-Oct-06 03:29N 37°48' W 122°19'0 0.0
2017-Oct-06 02:59N 37°48' W 122°19'0 0.0
2017-Oct-06 02:30N 37°48' W 122°19'0 0.0
2017-Oct-06 01:59N 37°48' W 122°19'0 0.0
2017-Oct-06 01:29N 37°48' W 122°19'0 0.0
2017-Oct-06 00:59N 37°48' W 122°19'0 0.0
2017-Oct-06 00:29N 37°48' W 122°19'0 0.0
2017-Oct-05 23:59N 37°48' W 122°19'0 0.0
2017-Oct-05 23:29N 37°48' W 122°19'0 0.0
2017-Oct-05 22:59N 37°48' W 122°19'0 0.0
2017-Oct-05 22:29N 37°48' W 122°19'0 0.0
2017-Oct-05 21:56N 37°48' W 122°19'0 0.0
2017-Oct-05 21:29N 37°48' W 122°19'0 0.0
2017-Oct-05 20:59N 37°48' W 122°19'0 0.0
2017-Oct-05 20:29N 37°48' W 122°19'0 0.0
2017-Oct-05 19:59N 37°48' W 122°19'0 0.0
2017-Oct-05 19:29N 37°48' W 122°19'0 0.0
2017-Oct-05 18:59N 37°48' W 122°19'0 0.0
2017-Oct-05 18:29N 37°48' W 122°19'0 0.0
2017-Oct-05 17:59N 37°48' W 122°19'0 0.0
2017-Oct-05 17:29N 37°48' W 122°19'0 0.0
2017-Oct-05 16:59N 37°48' W 122°19'0 0.0
2017-Oct-05 15:29N 37°48' W 122°19'0 0.0
2017-Oct-05 14:59N 37°48' W 122°19'0 0.1
2017-Oct-05 14:30N 37°48' W 122°19'1 2.1
2017-Oct-05 14:00N 37°48' W 122°18'0 0.5
2017-Oct-05 13:30N 37°48' W 122°18'2 3.4
2017-Oct-05 13:00N 37°48' W 122°20'4 7.8
2017-Oct-05 12:30N 37°49' W 122°25'4 8.5
2017-Oct-05 12:00N 37°49' W 122°30'5 9.1
2017-Oct-05 11:30N 37°47' W 122°35'5 9.2
2017-Oct-05 11:00N 37°44' W 122°40'4 8.1
2017-Oct-05 10:30N 37°40' W 122°40'5 9.8
2017-Oct-05 10:00N 37°35' W 122°40'5 9.9
2017-Oct-05 09:31N 37°30' W 122°40'5 9.9
2017-Oct-05 09:00N 37°25' W 122°40'510.0
2017-Oct-05 08:30N 37°20' W 122°40'510.9
2017-Oct-05 08:00N 37°15' W 122°39'612.8
2017-Oct-05 07:30N 37°08' W 122°38'612.9
2017-Oct-05 07:00N 37°02' W 122°35'713.0
2017-Oct-05 06:30N 36°56' W 122°32'612.8
2017-Oct-05 06:00N 36°50' W 122°29'612.7
2017-Oct-05 05:30N 36°44' W 122°26'612.4
2017-Oct-05 05:00N 36°39' W 122°23'612.4
2017-Oct-05 04:30N 36°33' W 122°20'612.4
2017-Oct-05 04:00N 36°27' W 122°17'612.2
2017-Oct-05 03:30N 36°22' W 122°14'712.6
2017-Oct-05 02:59N 36°16' W 122°10'712.9
2017-Oct-05 02:25N 36°09' W 122°06'512.8
2017-Oct-05 02:00N 36°05' W 122°03'612.6
2017-Oct-05 01:30N 35°59' W 121°59'612.4
2017-Oct-05 01:00N 35°54' W 121°55'1312.4
2017-Oct-04 23:57N 35°42' W 121°47'612.7
2017-Oct-04 23:30N 35°38' W 121°44'1412.3
2017-Oct-04 22:23N 35°26' W 121°35'512.4
2017-Oct-04 22:00N 35°22' W 121°33'612.5
2017-Oct-04 21:30N 35°16' W 121°28'612.8
2017-Oct-04 21:00N 35°11' W 121°25'612.4
2017-Oct-04 20:30N 35°05' W 121°21'612.2
2017-Oct-04 20:00N 35°00' W 121°17'5 9.6
2017-Oct-04 19:30N 34°56' W 121°14'5 9.6
2017-Oct-04 19:00N 34°52' W 121°11'510.1
2017-Oct-04 18:30N 34°47' W 121°08'510.1
2017-Oct-04 18:00N 34°43' W 121°05'5 9.9
2017-Oct-04 17:30N 34°39' W 121°02'510.1
2017-Oct-04 17:00N 34°34' W 120°59'610.6
2017-Oct-04 16:29N 34°29' W 120°56'510.3
2017-Oct-04 16:00N 34°26' W 120°51'510.5
2017-Oct-04 15:30N 34°25' W 120°45'510.8
2017-Oct-04 15:00N 34°23' W 120°39'610.7
2017-Oct-04 14:29N 34°22' W 120°32'511.2
2017-Oct-04 14:00N 34°20' W 120°26'611.1
2017-Oct-04 13:30N 34°19' W 120°20'510.9
2017-Oct-04 13:00N 34°17' W 120°13'610.7
2017-Oct-04 12:29N 34°16' W 120°07'510.8
2017-Oct-04 11:58N 34°15' W 120°00'610.8
2017-Oct-04 11:27N 34°13' W 119°54'510.9
2017-Oct-04 11:00N 34°12' W 119°48'611.0
2017-Oct-04 10:29N 34°10' W 119°41'510.7
2017-Oct-04 09:58N 34°09' W 119°35'510.9
2017-Oct-04 09:29N 34°07' W 119°29'511.1
2017-Oct-04 09:00N 34°06' W 119°23'611.0
2017-Oct-04 08:29N 34°04' W 119°16'511.1
2017-Oct-04 08:00N 34°02' W 119°10'611.1
2017-Oct-04 07:25N 33°59' W 119°03'511.1
2017-Oct-04 07:00N 33°56' W 118°58'511.1
2017-Oct-04 06:30N 33°54' W 118°53'611.2
2017-Oct-04 06:00N 33°51' W 118°47'511.0
2017-Oct-04 05:30N 33°48' W 118°41'611.0
2017-Oct-04 04:59N 33°45' W 118°35'611.5
2017-Oct-04 04:27N 33°42' W 118°29'611.7
2017-Oct-04 03:57N 33°40' W 118°23'510.8
2017-Oct-04 03:30N 33°39' W 118°17'4 8.1
2017-Oct-04 03:00N 33°42' W 118°15'2 3.3
2017-Oct-04 02:30N 33°44' W 118°15'0 0.7
2017-Oct-04 01:55N 33°44' W 118°15'0 0.0
2017-Oct-04 01:19N 33°44' W 118°15'0 0.0
2017-Oct-04 00:25N 33°44' W 118°15'0 0.0
2017-Oct-03 23:55N 33°44' W 118°15'0 0.0
2017-Oct-03 23:25N 33°44' W 118°15'0 0.0
2017-Oct-03 22:55N 33°44' W 118°15'0 0.0
2017-Oct-03 22:25N 33°44' W 118°15'0 0.0
2017-Oct-03 21:49N 33°44' W 118°15'0 0.0
2017-Oct-03 21:19N 33°44' W 118°15'0 0.0
2017-Oct-03 20:49N 33°44' W 118°15'0 0.0
2017-Oct-03 20:25N 33°44' W 118°15'0 0.0
2017-Oct-03 19:55N 33°44' W 118°15'0 0.0
2017-Oct-03 19:25N 33°44' W 118°15'0 0.0
2017-Oct-03 18:49N 33°44' W 118°15'0 0.0
2017-Oct-03 18:19N 33°44' W 118°15'0 0.0
2017-Oct-03 17:55N 33°44' W 118°15'0 0.0
2017-Oct-03 17:19N 33°44' W 118°15'0 0.0
2017-Oct-03 16:55N 33°44' W 118°15'0 0.0
2017-Oct-03 16:25N 33°44' W 118°15'0 0.0
2017-Oct-03 15:55N 33°44' W 118°15'0 0.0
2017-Oct-03 15:25N 33°44' W 118°15'0 0.0
2017-Oct-03 13:31N 33°44' W 118°15'0 0.0
2017-Oct-03 12:43N 33°44' W 118°15'0 0.0
2017-Oct-03 12:13N 33°44' W 118°15'0 0.0
2017-Oct-03 11:55N 33°44' W 118°15'0 0.0
2017-Oct-03 11:22N 33°44' W 118°15'0 0.0
2017-Oct-03 10:55N 33°44' W 118°15'0 0.0
2017-Oct-03 09:55N 33°44' W 118°15'0 0.0
2017-Oct-03 09:25N 33°44' W 118°15'0 0.0
2017-Oct-03 08:58N 33°44' W 118°15'0 0.0
2017-Oct-03 08:22N 33°44' W 118°15'0 0.0
2017-Oct-03 07:55N 33°44' W 118°15'0 0.0
2017-Oct-03 07:10N 33°44' W 118°15'0 0.0
2017-Oct-03 06:55N 33°44' W 118°15'0 0.0
2017-Oct-03 06:22N 33°44' W 118°15'0 0.0
2017-Oct-03 05:55N 33°44' W 118°15'0 0.0
2017-Oct-03 05:22N 33°44' W 118°15'0 0.0
2017-Oct-03 04:49N 33°44' W 118°15'0 0.0
2017-Oct-03 04:25N 33°44' W 118°15'0 0.0
2017-Oct-03 03:55N 33°44' W 118°15'0 0.0
2017-Oct-03 03:13N 33°44' W 118°15'0 0.0
2017-Oct-03 02:49N 33°44' W 118°15'0 0.0
2017-Oct-03 02:25N 33°44' W 118°15'0 0.0
2017-Oct-03 01:49N 33°44' W 118°15'0 0.0
2017-Oct-03 01:25N 33°44' W 118°15'0 0.0
2017-Oct-03 00:55N 33°44' W 118°15'0 0.0
2017-Oct-03 00:25N 33°44' W 118°15'0 0.0
2017-Oct-02 23:55N 33°44' W 118°15'0 0.0
2017-Oct-02 23:25N 33°44' W 118°15'0 0.0
2017-Oct-02 22:55N 33°44' W 118°15'0 0.0
2017-Oct-02 22:25N 33°44' W 118°15'0 0.0
2017-Oct-02 21:55N 33°44' W 118°15'0 0.0
2017-Oct-02 21:25N 33°44' W 118°15'0 0.0
2017-Oct-02 20:55N 33°44' W 118°15'0 0.0
2017-Oct-02 20:13N 33°44' W 118°15'0 0.0
2017-Oct-02 19:55N 33°44' W 118°15'0 0.0
2017-Oct-02 19:25N 33°44' W 118°15'0 0.0
2017-Oct-02 18:55N 33°44' W 118°15'0 0.0
2017-Oct-02 18:13N 33°44' W 118°15'0 0.0
2017-Oct-02 17:55N 33°44' W 118°15'0 0.0
2017-Oct-02 17:25N 33°44' W 118°15'0 0.0
2017-Oct-02 16:55N 33°44' W 118°15'0 0.0
2017-Oct-02 16:25N 33°44' W 118°15'0 0.0
2017-Oct-02 15:55N 33°44' W 118°15'0 0.0
2017-Oct-02 15:25N 33°44' W 118°15'0 0.0
2017-Oct-02 14:49N 33°44' W 118°15'0 0.0
2017-Oct-02 14:25N 33°44' W 118°15'0 0.0
2017-Oct-02 13:40N 33°44' W 118°15'0 0.0
2017-Oct-02 13:13N 33°44' W 118°15'0 0.0
2017-Oct-02 12:46N 33°44' W 118°15'0 0.0
2017-Oct-02 12:25N 33°44' W 118°15'0 0.0
2017-Oct-02 11:55N 33°44' W 118°15'0 0.0
2017-Oct-02 11:28N 33°44' W 118°15'0 0.0
2017-Oct-02 10:55N 33°44' W 118°15'0 0.0
2017-Oct-02 09:31N 33°44' W 118°15'0 0.0
2017-Oct-02 09:19N 33°44' W 118°15'0 0.0
2017-Oct-02 08:55N 33°44' W 118°15'0 0.0
2017-Oct-02 08:28N 33°44' W 118°15'0 0.0
2017-Oct-02 07:55N 33°44' W 118°15'0 0.0
2017-Oct-02 07:22N 33°44' W 118°15'0 0.0
2017-Oct-02 06:55N 33°44' W 118°15'0 0.0
2017-Oct-02 06:25N 33°44' W 118°15'0 0.0
2017-Oct-02 05:40N 33°44' W 118°15'0 0.0
2017-Oct-02 05:28N 33°44' W 118°15'0 0.0
2017-Oct-02 04:58N 33°44' W 118°15'0 0.0
2017-Oct-02 04:28N 33°44' W 118°15'0 0.0
2017-Oct-02 03:52N 33°44' W 118°15'0 0.0
2017-Oct-02 03:28N 33°44' W 118°15'0 0.0
2017-Oct-02 02:40N 33°44' W 118°15'0 0.0
2017-Oct-02 02:28N 33°44' W 118°15'0 0.0
2017-Oct-02 01:52N 33°44' W 118°15'0 0.0
2017-Oct-02 01:22N 33°44' W 118°15'0 0.0
2017-Oct-02 00:58N 33°44' W 118°15'0 0.0
2017-Oct-02 00:22N 33°44' W 118°15'0 0.0
2017-Oct-01 23:58N 33°44' W 118°15'0 0.0
2017-Oct-01 23:28N 33°44' W 118°15'0 0.0
2017-Oct-01 22:58N 33°44' W 118°15'0 0.0
2017-Oct-01 22:10N 33°44' W 118°15'0 0.0
2017-Oct-01 21:58N 33°44' W 118°15'0 0.0
2017-Oct-01 21:28N 33°44' W 118°15'0 0.0
2017-Oct-01 20:58N 33°44' W 118°15'0 0.0
2017-Oct-01 20:28N 33°44' W 118°15'0 0.0
2017-Oct-01 19:58N 33°44' W 118°15'0 0.0
2017-Oct-01 19:16N 33°44' W 118°15'0 0.0
2017-Oct-01 18:55N 33°44' W 118°15'0 0.0
2017-Oct-01 18:22N 33°44' W 118°15'0 0.0
2017-Oct-01 17:58N 33°44' W 118°15'0 0.0
2017-Oct-01 17:28N 33°44' W 118°15'0 0.0
2017-Oct-01 16:52N 33°44' W 118°15'0 0.0
2017-Oct-01 16:22N 33°44' W 118°15'0 0.0
2017-Oct-01 15:58N 33°44' W 118°15'0 0.0
2017-Oct-01 15:28N 33°44' W 118°15'0 0.0
2017-Oct-01 11:43N 33°44' W 118°15'0 0.0
2017-Oct-01 11:25N 33°44' W 118°15'0 0.0
2017-Oct-01 10:55N 33°44' W 118°15'0 0.0
2017-Oct-01 10:25N 33°44' W 118°15'0 0.0
2017-Oct-01 09:46N 33°44' W 118°15'0 0.0
2017-Oct-01 09:13N 33°44' W 118°15'0 0.0
2017-Oct-01 08:49N 33°44' W 118°15'0 0.0
2017-Oct-01 08:25N 33°44' W 118°15'0 0.0
2017-Oct-01 07:49N 33°44' W 118°15'0 0.0
2017-Oct-01 07:01N 33°44' W 118°15'0 0.1
2017-Oct-01 06:49N 33°44' W 118°15'0 0.0
2017-Oct-01 06:19N 33°44' W 118°15'0 0.0
2017-Oct-01 05:55N 33°44' W 118°15'0 0.0
2017-Oct-01 05:19N 33°44' W 118°15'0 0.0
2017-Oct-01 04:55N 33°44' W 118°15'0 0.0
2017-Oct-01 04:19N 33°44' W 118°15'0 0.0
2017-Oct-01 03:58N 33°44' W 118°15'0 0.0
2017-Oct-01 03:28N 33°44' W 118°15'0 0.0
2017-Oct-01 02:58N 33°44' W 118°15'107 4.3
2017-Sep-30 02:00N 34°16' W 120°18'917.6
2017-Sep-30 01:30N 34°19' W 120°28'917.6
2017-Sep-30 01:00N 34°21' W 120°38'917.5
2017-Sep-30 00:30N 34°23' W 120°49'1017.4
2017-Sep-29 23:56N 34°24' W 121°00'816.6
2017-Sep-29 23:28N 34°24' W 121°10'916.6
2017-Sep-29 22:54N 34°24' W 121°21'717.9
2017-Sep-29 22:29N 34°24' W 121°30'816.8
2017-Sep-29 22:00N 34°24' W 121°40'1117.3
2017-Sep-29 21:22N 34°24' W 121°53'617.4
2017-Sep-29 21:00N 34°23' W 122°01'917.3
2017-Sep-29 20:29N 34°23' W 122°12'817.2
2017-Sep-29 20:00N 34°23' W 122°22'816.5
2017-Sep-29 19:30N 34°23' W 122°32'1416.5
2017-Sep-29 18:40N 34°24' W 122°49'514.8
2017-Sep-29 18:19N 34°24' W 122°55'3 8.6
2017-Sep-29 17:58N 34°24' W 122°58'714.3
2017-Sep-29 17:29N 34°24' W 123°07'1218.3
2017-Sep-29 16:50N 34°24' W 123°21'5818.2
2017-Sep-29 13:40N 34°24' W 124°31'317.7
2017-Sep-29 13:30N 34°24' W 124°35'  

Dump ship's entire track history